createdAt,value
2019-03-22T00:01:37.110Z,12.53
2019-03-22T00:04:06.877Z,15.70
2019-03-22T00:06:36.680Z,16.97
2019-03-22T00:09:07.633Z,11.93
2019-03-22T00:11:37.405Z,11.20
2019-03-22T00:14:07.230Z,13.43
2019-03-22T00:16:36.913Z,10.70
2019-03-22T00:19:06.739Z,11.13
2019-03-22T00:21:36.467Z,12.17
2019-03-22T00:24:06.279Z,17.80
2019-03-22T00:26:36.157Z,8.63
2019-03-22T00:29:05.920Z,10.73
2019-03-22T00:31:35.675Z,12.43
2019-03-22T00:34:05.378Z,17.00
2019-03-22T00:36:35.097Z,13.30
2019-03-22T00:39:05.872Z,10.27
2019-03-22T00:41:35.581Z,10.67
2019-03-22T00:44:05.340Z,12.07
2019-03-22T00:46:35.112Z,11.37
2019-03-22T00:49:04.806Z,17.63
2019-03-22T00:51:34.537Z,11.20
2019-03-22T00:54:04.259Z,12.00
2019-03-22T00:56:33.927Z,10.27
2019-03-22T00:59:03.632Z,16.40
2019-03-22T01:01:33.299Z,13.47
2019-03-22T01:04:03.055Z,10.63
2019-03-22T01:06:32.731Z,9.87
2019-03-22T01:09:02.508Z,10.53
2019-03-22T01:11:32.182Z,12.67
2019-03-22T01:14:01.950Z,11.30
2019-03-22T01:16:31.684Z,13.60
2019-03-22T01:19:01.513Z,10.60
2019-03-22T01:21:31.221Z,8.87
2019-03-22T01:24:01.005Z,9.90
2019-03-22T01:26:30.742Z,10.77
2019-03-22T01:29:00.596Z,10.23
2019-03-22T01:31:30.281Z,11.30
2019-03-22T01:34:00.060Z,11.10
2019-03-22T01:36:29.746Z,9.27
2019-03-22T01:38:59.521Z,10.87
2019-03-22T01:41:29.212Z,10.83
2019-03-22T01:43:58.984Z,9.70
2019-03-22T01:46:30.065Z,14.80
2019-03-22T01:48:59.803Z,15.20
2019-03-22T01:51:29.509Z,12.30
2019-03-22T01:53:59.202Z,12.30
2019-03-22T01:56:28.869Z,12.10
2019-03-22T01:58:58.618Z,10.80
2019-03-22T02:01:28.313Z,20.53
2019-03-22T02:03:58.002Z,13.00
2019-03-22T02:06:27.720Z,8.73
2019-03-22T02:08:57.457Z,14.40
2019-03-22T02:11:27.128Z,11.67
2019-03-22T02:13:56.932Z,12.37
2019-03-22T02:16:28.161Z,14.00
2019-03-22T02:18:57.872Z,7.60
2019-03-22T02:21:27.602Z,10.27
2019-03-22T02:23:57.354Z,17.97
2019-03-22T02:26:27.068Z,11.93
2019-03-22T02:28:56.801Z,11.50
2019-03-22T02:31:26.577Z,9.17
2019-03-22T02:33:56.282Z,9.97
2019-03-22T02:36:26.033Z,9.27
2019-03-22T02:38:55.742Z,9.60
2019-03-22T02:41:25.429Z,17.33
2019-03-22T02:43:55.163Z,16.87
2019-03-22T02:46:24.874Z,12.57
2019-03-22T02:48:54.616Z,13.77
2019-03-22T02:51:24.444Z,9.37
2019-03-22T02:53:54.161Z,10.07
2019-03-22T02:56:23.983Z,9.03
2019-03-22T02:58:53.689Z,13.30
2019-03-22T03:01:23.352Z,11.70
2019-03-22T03:03:53.125Z,11.73
2019-03-22T03:06:22.819Z,10.10
2019-03-22T03:08:52.486Z,10.27
2019-03-22T03:11:22.165Z,13.60
2019-03-22T03:13:51.861Z,22.60
2019-03-22T03:16:21.542Z,12.20
2019-03-22T03:18:51.207Z,8.73
2019-03-22T03:21:20.875Z,12.27
2019-03-22T03:23:50.558Z,8.67
2019-03-22T03:26:20.236Z,15.50
2019-03-22T03:28:49.997Z,8.27
2019-03-22T03:31:19.657Z,12.17
2019-03-22T03:33:49.372Z,17.67
2019-03-22T03:36:19.052Z,11.07
2019-03-22T03:38:48.827Z,19.83
2019-03-22T03:41:18.508Z,11.10
2019-03-22T03:43:48.216Z,14.43
2019-03-22T03:46:17.979Z,10.83
2019-03-22T03:48:47.656Z,12.70
2019-03-22T03:51:17.339Z,8.53
2019-03-22T03:53:47.147Z,11.27
2019-03-22T03:56:16.943Z,15.57
2019-03-22T03:58:52.821Z,9.13
2019-03-22T04:01:18.250Z,12.40
2019-03-22T04:03:47.931Z,10.87
2019-03-22T04:06:17.648Z,11.70
2019-03-22T04:08:47.346Z,17.40
2019-03-22T04:11:17.074Z,11.20
2019-03-22T04:13:46.894Z,9.37
2019-03-22T04:16:16.665Z,8.37
2019-03-22T04:18:46.329Z,10.70
2019-03-22T04:21:16.041Z,16.60
2019-03-22T04:23:45.697Z,12.20
2019-03-22T04:26:15.384Z,18.90
2019-03-22T04:28:45.103Z,14.53
2019-03-22T04:31:14.916Z,15.80
2019-03-22T04:33:44.589Z,14.53
2019-03-22T04:36:14.359Z,10.53
2019-03-22T04:38:44.020Z,14.07
2019-03-22T04:41:13.804Z,11.50
2019-03-22T04:43:43.556Z,27.37
2019-03-22T04:46:13.935Z,12.47
2019-03-22T04:48:44.297Z,13.10
2019-03-22T04:51:14.460Z,11.17
2019-03-22T04:53:50.491Z,10.37
2019-03-22T04:56:21.755Z,8.83
2019-03-22T04:58:52.270Z,13.43
2019-03-22T05:01:24.063Z,14.30
2019-03-22T05:03:54.609Z,9.93
2019-03-22T05:06:24.907Z,11.00
2019-03-22T05:08:56.900Z,13.17
2019-03-22T05:11:27.933Z,12.83
2019-03-22T05:14:00.048Z,14.93
2019-03-22T05:16:30.691Z,11.97
2019-03-22T05:19:01.779Z,18.87
2019-03-22T05:21:32.300Z,8.77
2019-03-22T05:24:04.344Z,18.47
2019-03-22T05:26:37.372Z,14.13
2019-03-22T05:29:08.467Z,13.73
2019-03-22T05:32:06.352Z,11.10
2019-03-22T05:34:36.189Z,11.70
2019-03-22T05:37:06.172Z,11.47
2019-03-22T05:39:35.916Z,13.40
2019-03-22T05:42:05.565Z,12.93
2019-03-22T05:44:35.374Z,11.73
2019-03-22T05:47:05.578Z,11.30
2019-03-22T05:49:35.288Z,12.87
2019-03-22T05:52:05.247Z,11.83
2019-03-22T05:54:35.026Z,17.33
2019-03-22T05:57:13.309Z,19.27
2019-03-22T05:59:42.343Z,17.97
2019-03-22T06:02:07.668Z,12.90
2019-03-22T06:04:37.471Z,12.33
2019-03-22T06:07:07.211Z,12.60
2019-03-22T06:09:36.904Z,12.63
2019-03-22T06:12:06.608Z,14.47
2019-03-22T06:14:36.309Z,11.90
2019-03-22T06:17:05.993Z,15.27
2019-03-22T06:19:35.683Z,12.53
2019-03-22T06:22:05.438Z,12.90
2019-03-22T06:24:35.140Z,12.20
2019-03-22T06:27:04.841Z,11.00
2019-03-22T06:29:34.542Z,16.03
2019-03-22T06:32:04.301Z,19.92
2019-03-22T06:34:34.084Z,12.47
2019-03-22T06:37:03.776Z,11.00
2019-03-22T06:39:33.570Z,38.47
2019-03-22T06:42:03.431Z,18.03
2019-03-22T06:44:33.219Z,21.23
2019-03-22T06:47:02.891Z,15.53
2019-03-22T06:49:32.599Z,15.33
2019-03-22T06:52:02.400Z,16.53
2019-03-22T06:54:32.230Z,18.20
2019-03-22T06:57:02.224Z,17.40
2019-03-22T06:59:31.937Z,19.17
2019-03-22T07:02:01.663Z,13.43
2019-03-22T07:04:31.376Z,15.47
2019-03-22T07:07:01.124Z,14.20
2019-03-22T07:09:30.881Z,12.00
2019-03-22T07:12:00.878Z,17.67
2019-03-22T07:14:30.824Z,14.23
2019-03-22T07:17:00.561Z,10.40
2019-03-22T07:19:30.240Z,15.17
2019-03-22T07:22:00.078Z,17.93
2019-03-22T07:24:29.812Z,15.40
2019-03-22T07:26:59.619Z,13.27
2019-03-22T07:29:29.394Z,17.03
2019-03-22T07:31:59.207Z,22.03
2019-03-22T07:34:28.865Z,15.40
2019-03-22T07:36:58.667Z,16.80
2019-03-22T07:39:28.399Z,25.00
2019-03-22T07:41:58.171Z,14.30
2019-03-22T07:44:27.868Z,13.20
2019-03-22T07:46:57.636Z,16.23
2019-03-22T07:49:27.329Z,13.37
2019-03-22T07:51:57.128Z,14.83
2019-03-22T07:54:26.869Z,13.53
2019-03-22T07:56:56.636Z,11.50
2019-03-22T07:59:26.314Z,18.30
2019-03-22T08:01:56.085Z,17.07
2019-03-22T08:04:25.844Z,23.00
2019-03-22T08:06:55.556Z,15.90
2019-03-22T08:09:25.218Z,16.40
2019-03-22T08:11:54.985Z,15.93
2019-03-22T08:14:24.691Z,17.37
2019-03-22T08:16:54.429Z,19.03
2019-03-22T08:19:24.200Z,15.30
2019-03-22T08:21:53.909Z,15.53
2019-03-22T08:24:23.604Z,15.20
2019-03-22T08:26:53.413Z,16.60
2019-03-22T08:29:23.170Z,11.30
2019-03-22T08:31:52.898Z,14.13
2019-03-22T08:34:22.744Z,13.60
2019-03-22T08:36:52.498Z,14.33
2019-03-22T08:39:22.175Z,20.73
2019-03-22T08:41:51.919Z,13.90
2019-03-22T08:44:21.670Z,13.10
2019-03-22T08:46:51.613Z,13.33
2019-03-22T08:49:21.481Z,13.27
2019-03-22T08:51:51.512Z,15.20
2019-03-22T08:54:21.297Z,13.63
2019-03-22T08:56:51.083Z,17.13
2019-03-22T08:59:20.786Z,15.07
2019-03-22T09:01:50.562Z,16.43
2019-03-22T09:04:20.268Z,15.90
2019-03-22T09:06:50.143Z,15.43
2019-03-22T09:09:19.959Z,16.63
2019-03-22T09:11:49.677Z,12.00
2019-03-22T09:14:19.384Z,14.20
2019-03-22T09:16:49.174Z,15.73
2019-03-22T09:19:18.826Z,19.23
2019-03-22T09:21:48.623Z,25.20
2019-03-22T09:24:19.113Z,29.77
2019-03-22T09:26:48.961Z,17.73
2019-03-22T09:29:18.776Z,24.17
2019-03-22T09:31:48.636Z,18.13
2019-03-22T09:34:18.321Z,13.80
2019-03-22T09:36:48.021Z,41.43
2019-03-22T09:39:17.768Z,19.90
2019-03-22T09:41:47.513Z,16.20
2019-03-22T09:44:17.250Z,18.40
2019-03-22T09:46:47.184Z,23.60
2019-03-22T09:49:17.098Z,15.80
2019-03-22T09:51:46.972Z,23.00
2019-03-22T09:54:16.732Z,15.30
2019-03-22T09:56:47.584Z,18.33
2019-03-22T09:59:17.511Z,21.20
2019-03-22T10:01:47.406Z,21.43
2019-03-22T10:04:17.158Z,25.63
2019-03-22T10:06:46.904Z,22.83
2019-03-22T10:09:16.763Z,30.73
2019-03-22T10:11:46.607Z,29.77
2019-03-22T10:14:16.429Z,20.33
2019-03-22T10:16:47.651Z,18.60
2019-03-22T10:19:17.863Z,27.87
2019-03-22T10:21:47.558Z,21.40
2019-03-22T10:24:17.295Z,19.63
2019-03-22T10:26:47.018Z,19.30
2019-03-22T10:29:16.718Z,19.53
2019-03-22T10:31:46.605Z,18.23
2019-03-22T10:34:16.493Z,26.77
2019-03-22T10:36:46.284Z,23.97
2019-03-22T10:39:15.972Z,17.33
2019-03-22T10:41:45.764Z,33.30
2019-03-22T10:44:15.603Z,21.70
2019-03-22T10:46:45.432Z,20.10
2019-03-22T10:49:15.319Z,16.00
2019-03-22T10:51:56.044Z,20.90
2019-03-22T10:54:16.468Z,20.10
2019-03-22T10:56:46.227Z,19.67
2019-03-22T10:59:15.943Z,17.97
2019-03-22T11:01:52.376Z,18.23
2019-03-22T11:04:17.227Z,25.53
2019-03-22T11:06:46.898Z,21.30
2019-03-22T11:09:16.641Z,16.73
2019-03-22T11:11:46.383Z,24.23
2019-03-22T11:14:16.177Z,21.30
2019-03-22T11:16:47.007Z,21.90
2019-03-22T11:19:16.729Z,21.63
2019-03-22T11:21:46.502Z,26.17
2019-03-22T11:24:16.185Z,26.63
2019-03-22T11:26:45.902Z,22.97
2019-03-22T11:29:15.706Z,30.10
2019-03-22T11:31:45.484Z,27.73
2019-03-22T11:34:15.275Z,25.93
2019-03-22T11:36:45.044Z,26.40
2019-03-22T11:39:15.732Z,26.37
2019-03-22T11:41:45.924Z,21.80
2019-03-22T11:44:15.635Z,23.03
2019-03-22T11:46:45.320Z,25.63
2019-03-22T11:49:15.090Z,23.27
2019-03-22T11:51:44.960Z,23.97
2019-03-22T11:54:14.748Z,28.03
2019-03-22T11:56:44.449Z,24.40
2019-03-22T11:59:14.155Z,28.33
2019-03-22T12:02:02.671Z,23.93
2019-03-22T12:04:32.457Z,26.63
2019-03-22T12:07:02.265Z,30.37
2019-03-22T12:09:31.945Z,24.57
2019-03-22T12:12:01.730Z,20.70
2019-03-22T12:14:31.575Z,19.77
2019-03-22T12:17:01.280Z,23.50
2019-03-22T12:19:31.039Z,21.70
2019-03-22T12:22:00.848Z,22.00
2019-03-22T12:24:30.584Z,20.73
2019-03-22T12:27:00.362Z,26.90
2019-03-22T12:29:30.120Z,19.23
2019-03-22T12:31:59.846Z,17.03
2019-03-22T12:34:29.524Z,21.80
2019-03-22T12:36:59.296Z,18.50
2019-03-22T12:39:28.988Z,19.60
2019-03-22T12:41:58.706Z,19.50
2019-03-22T12:44:28.456Z,15.03
2019-03-22T12:46:58.280Z,18.00
2019-03-22T12:49:28.028Z,19.53
2019-03-22T12:51:57.726Z,16.30
2019-03-22T12:54:27.391Z,15.57
2019-03-22T12:56:58.204Z,15.20
2019-03-22T12:59:27.996Z,14.70
2019-03-22T13:01:57.761Z,17.40
2019-03-22T13:04:27.552Z,18.57
2019-03-22T13:06:57.243Z,19.53
2019-03-22T13:09:26.957Z,19.20
2019-03-22T13:11:56.657Z,19.53
2019-03-22T13:14:26.447Z,19.03
2019-03-22T13:16:56.215Z,19.30
2019-03-22T13:19:26.003Z,14.10
2019-03-22T13:21:55.713Z,16.67
2019-03-22T13:24:25.496Z,20.73
2019-03-22T13:26:55.266Z,14.57
2019-03-22T13:29:25.068Z,14.20
2019-03-22T13:31:54.860Z,13.40
2019-03-22T13:34:24.691Z,9.70
2019-03-22T13:36:54.403Z,11.50
2019-03-22T13:39:24.138Z,9.53
2019-03-22T13:41:53.900Z,9.10
2019-03-22T13:44:23.612Z,9.23
2019-03-22T13:46:53.333Z,10.70
2019-03-22T13:49:23.088Z,10.37
2019-03-22T13:51:52.849Z,12.60
2019-03-22T13:54:22.636Z,10.20
2019-03-22T13:56:52.412Z,10.17
2019-03-22T13:59:22.130Z,9.70
2019-03-22T14:01:51.924Z,9.70
2019-03-22T14:04:21.634Z,8.20
2019-03-22T14:06:51.453Z,9.80
2019-03-22T14:09:21.164Z,11.03
2019-03-22T14:11:50.894Z,11.00
2019-03-22T14:14:20.679Z,12.70
2019-03-22T14:16:50.391Z,9.87
2019-03-22T14:19:20.150Z,15.33
2019-03-22T14:21:49.852Z,8.97
2019-03-22T14:24:19.592Z,8.90
2019-03-22T14:26:49.308Z,11.00
2019-03-22T14:29:18.980Z,15.90
2019-03-22T14:31:48.693Z,10.90
2019-03-22T14:34:18.478Z,8.90
2019-03-22T14:36:48.203Z,10.40
2019-03-22T14:39:18.015Z,11.87
2019-03-22T14:41:47.836Z,12.20
2019-03-22T14:44:25.052Z,13.23
2019-03-22T14:46:49.047Z,16.10
2019-03-22T14:49:18.721Z,14.03
2019-03-22T14:51:48.429Z,12.87
2019-03-22T14:54:18.118Z,10.70
2019-03-22T14:56:47.934Z,10.37
2019-03-22T14:59:17.668Z,11.23
2019-03-22T15:01:47.375Z,12.90
2019-03-22T15:04:17.090Z,16.13
2019-03-22T15:06:46.829Z,17.20
2019-03-22T15:09:16.515Z,14.30
2019-03-22T15:11:46.236Z,15.37
2019-03-22T15:14:44.289Z,15.27
2019-03-22T15:17:28.986Z,16.87
2019-03-22T15:20:08.918Z,14.20
2019-03-22T15:22:56.757Z,17.33
2019-03-22T15:25:44.384Z,21.53
2019-03-22T15:28:39.157Z,17.20
2019-03-22T15:31:40.222Z,17.10
2019-03-22T15:34:34.927Z,17.90
2019-03-22T15:37:22.653Z,18.40
2019-03-22T15:40:00.682Z,21.70
2019-03-22T15:42:30.822Z,18.23
2019-03-22T15:45:00.711Z,16.63
2019-03-22T15:47:30.592Z,21.50
2019-03-22T15:50:00.443Z,15.43
2019-03-22T15:52:30.227Z,20.80
2019-03-22T15:55:00.049Z,19.87
2019-03-22T15:57:29.846Z,16.93
2019-03-22T15:59:59.634Z,18.87
2019-03-22T16:02:29.337Z,15.73
2019-03-22T16:04:59.046Z,17.13
2019-03-22T16:07:28.765Z,20.80
2019-03-22T16:09:58.581Z,15.20
2019-03-22T16:12:28.418Z,17.40
2019-03-22T16:14:58.236Z,17.33
2019-03-22T16:17:28.009Z,18.73
2019-03-22T16:19:57.754Z,16.73
2019-03-22T16:22:27.436Z,25.43
2019-03-22T16:24:57.285Z,19.63
2019-03-22T16:27:27.081Z,19.17
2019-03-22T16:29:56.876Z,23.23
2019-03-22T16:32:26.564Z,20.73
2019-03-22T16:34:56.345Z,17.90
2019-03-22T16:37:26.095Z,19.87
2019-03-22T16:39:55.872Z,24.50
2019-03-22T16:42:25.683Z,31.07
2019-03-22T16:44:55.415Z,25.30
2019-03-22T16:47:25.184Z,32.93
2019-03-22T16:49:55.033Z,19.57
2019-03-22T16:52:26.217Z,22.87
2019-03-22T16:54:55.983Z,23.73
2019-03-22T16:57:25.891Z,20.73
2019-03-22T16:59:55.748Z,21.63
2019-03-22T17:02:25.494Z,25.60
2019-03-22T17:04:55.260Z,26.63
2019-03-22T17:07:25.184Z,21.20
2019-03-22T17:09:54.982Z,21.20
2019-03-22T17:12:24.715Z,22.70
2019-03-22T17:14:54.469Z,23.00
2019-03-22T17:17:24.242Z,27.13
2019-03-22T17:19:54.052Z,19.83
2019-03-22T17:22:23.865Z,21.73
2019-03-22T17:24:53.549Z,22.47
2019-03-22T17:27:23.250Z,20.23
2019-03-22T17:29:52.957Z,19.67
2019-03-22T17:32:22.788Z,23.33
2019-03-22T17:34:52.575Z,26.23
2019-03-22T17:37:22.501Z,23.90
2019-03-22T17:39:52.326Z,20.80
2019-03-22T17:42:22.137Z,21.63
2019-03-22T17:44:51.990Z,25.80
2019-03-22T17:47:21.822Z,22.53
2019-03-22T17:49:51.776Z,24.50
2019-03-22T17:52:21.483Z,20.97
2019-03-22T17:54:51.262Z,22.37
2019-03-22T17:57:20.973Z,21.70
2019-03-22T17:59:50.832Z,20.97
2019-03-22T18:02:20.752Z,25.37
2019-03-22T18:04:50.503Z,21.30
2019-03-22T18:07:20.264Z,20.70
2019-03-22T18:09:50.100Z,26.37
2019-03-22T18:12:21.624Z,35.00
2019-03-22T18:14:51.449Z,29.70
2019-03-22T18:17:21.260Z,38.23
2019-03-22T18:19:51.095Z,29.07
2019-03-22T18:22:20.928Z,27.90
2019-03-22T18:24:50.806Z,33.67
2019-03-22T18:27:20.627Z,38.93
2019-03-22T18:29:50.341Z,35.67
2019-03-22T18:32:20.120Z,37.87
2019-03-22T18:34:49.887Z,32.10
2019-03-22T18:37:19.688Z,31.43
2019-03-22T18:39:49.641Z,41.23
2019-03-22T18:42:19.413Z,43.27
2019-03-22T18:44:49.254Z,34.10
2019-03-22T18:47:18.956Z,33.43
2019-03-22T18:49:48.681Z,27.33
2019-03-22T18:52:18.542Z,37.07
2019-03-22T18:54:48.290Z,30.17
2019-03-22T18:57:17.981Z,30.57
2019-03-22T18:59:47.776Z,37.47
2019-03-22T19:02:17.627Z,36.73
2019-03-22T19:04:47.404Z,35.43
2019-03-22T19:07:17.137Z,37.50
2019-03-22T19:09:46.861Z,31.93
2019-03-22T19:12:16.803Z,35.00
2019-03-22T19:14:46.584Z,28.77
2019-03-22T19:17:16.412Z,30.63
2019-03-22T19:19:46.172Z,32.60
2019-03-22T19:22:15.965Z,30.60
2019-03-22T19:24:45.689Z,38.40
2019-03-22T19:27:15.424Z,38.33
2019-03-22T19:29:45.127Z,32.50
2019-03-22T19:32:14.965Z,34.97
2019-03-22T19:34:53.950Z,30.47
2019-03-22T19:37:16.249Z,35.37
2019-03-22T19:39:45.964Z,32.97
2019-03-22T19:42:15.845Z,38.17
2019-03-22T19:44:45.563Z,34.93
2019-03-22T19:47:15.342Z,36.13
2019-03-22T19:49:45.084Z,31.63
2019-03-22T19:52:14.855Z,26.90
2019-03-22T19:54:44.563Z,30.63
2019-03-22T19:57:14.409Z,31.13
2019-03-22T19:59:44.180Z,31.70
2019-03-22T20:02:13.953Z,27.33
2019-03-22T20:04:44.136Z,24.77
2019-03-22T20:07:13.875Z,31.70
2019-03-22T20:09:43.649Z,35.90
2019-03-22T20:12:13.459Z,35.20
2019-03-22T20:14:43.198Z,42.13
2019-03-22T20:17:12.888Z,40.73
2019-03-22T20:19:42.732Z,30.23
2019-03-22T20:22:12.539Z,32.00
2019-03-22T20:24:42.344Z,32.53
2019-03-22T20:27:12.269Z,31.23
2019-03-22T20:29:42.129Z,33.40
2019-03-22T20:32:11.920Z,30.80
2019-03-22T20:34:41.754Z,23.87
2019-03-22T20:37:11.485Z,32.50
2019-03-22T20:39:41.316Z,25.87
2019-03-22T20:42:11.087Z,28.40
2019-03-22T20:44:40.882Z,30.20
2019-03-22T20:47:10.709Z,41.33
2019-03-22T20:49:40.522Z,27.63
2019-03-22T20:52:10.365Z,27.70
2019-03-22T20:54:40.192Z,29.73
2019-03-22T20:57:09.988Z,30.60
2019-03-22T20:59:39.754Z,32.93
2019-03-22T21:02:09.691Z,30.27
2019-03-22T21:04:39.530Z,28.27
2019-03-22T21:07:09.403Z,30.07
2019-03-22T21:09:39.208Z,27.83
2019-03-22T21:12:09.048Z,31.53
2019-03-22T21:14:40.999Z,32.10
2019-03-22T21:17:10.705Z,30.60
2019-03-22T21:19:40.422Z,24.97
2019-03-22T21:22:10.281Z,30.77
2019-03-22T21:24:39.977Z,26.87
2019-03-22T21:27:15.387Z,29.60
2019-03-22T21:29:44.354Z,32.63
2019-03-22T21:32:12.928Z,35.23
2019-03-22T21:34:44.095Z,46.43
2019-03-22T21:37:14.210Z,30.17
2019-03-22T21:39:43.988Z,32.30
2019-03-22T21:42:13.859Z,36.60
2019-03-22T21:44:44.532Z,28.97
2019-03-22T21:47:14.348Z,34.90
2019-03-22T21:49:44.112Z,28.17
2019-03-22T21:52:13.901Z,28.20
2019-03-22T21:54:43.687Z,27.37
2019-03-22T21:57:13.508Z,28.60
2019-03-22T21:59:43.287Z,32.60
2019-03-22T22:02:13.114Z,31.70
2019-03-22T22:04:42.837Z,27.30
2019-03-22T22:07:12.645Z,27.13
2019-03-22T22:09:42.380Z,29.57
2019-03-22T22:12:12.088Z,29.97
2019-03-22T22:14:41.873Z,26.63
2019-03-22T22:17:11.576Z,32.37
2019-03-22T22:19:41.321Z,27.00
2019-03-22T22:22:11.099Z,28.30
2019-03-22T22:24:42.460Z,25.33
2019-03-22T22:27:14.087Z,27.40
2019-03-22T22:29:47.611Z,29.43
2019-03-22T22:32:17.389Z,29.73
2019-03-22T22:34:47.096Z,28.53
2019-03-22T22:37:16.874Z,29.00
2019-03-22T22:39:46.702Z,32.30
2019-03-22T22:42:16.450Z,29.70
2019-03-22T22:44:46.155Z,30.13
2019-03-22T22:47:15.953Z,30.37
2019-03-22T22:49:45.728Z,34.00
2019-03-22T22:52:15.420Z,39.93
2019-03-22T22:54:45.202Z,27.90
2019-03-22T22:57:15.029Z,30.20
2019-03-22T22:59:44.809Z,31.30
2019-03-22T23:02:14.663Z,35.27
2019-03-22T23:04:44.389Z,26.40
2019-03-22T23:07:14.177Z,31.90
2019-03-22T23:09:43.882Z,31.50
2019-03-22T23:12:14.906Z,28.10
2019-03-22T23:14:44.656Z,27.40
2019-03-22T23:17:14.423Z,28.00
2019-03-22T23:19:44.375Z,22.40
2019-03-22T23:22:14.166Z,24.03
2019-03-22T23:24:43.949Z,26.37
2019-03-22T23:27:13.756Z,30.60
2019-03-22T23:29:43.567Z,24.00
2019-03-22T23:32:13.385Z,26.00
2019-03-22T23:34:43.190Z,28.30
2019-03-22T23:37:12.866Z,31.43
2019-03-22T23:39:42.545Z,29.13
2019-03-22T23:42:12.317Z,24.90
2019-03-22T23:44:42.120Z,28.03
2019-03-22T23:47:11.928Z,28.43
2019-03-22T23:49:41.672Z,25.63
2019-03-22T23:52:11.450Z,31.33
2019-03-22T23:54:41.204Z,28.67
2019-03-22T23:57:10.882Z,37.97
2019-03-22T23:59:40.636Z,30.70
